Terminal Aerodrome Forecast
Issued by NWS Blacksburg, VA

Home | Current Version | Previous Version | Text Only | Print | Product List | Glossary On
Versions: 1 2 3 4 5 6 7 8 9 10 11 12 13
000
FTUS41 KRNK 231720
TAFROA
TAF
KROA 231720Z 2318/2418 23009KT P6SM VCSH BKN040
     FM240300 20009KT P6SM VCSH BKN030 WS020/21040KT
     FM241100 28010KT P6SM SCT030 BKN080
     FM241700 29009KT P6SM SCT040=

USA.gov is the U.S. government's official web portal to all federal, state and local government web resources and services.